• Join FlightAware (Why Join?)
  • Login
  • US Flag 
11:22PM EDT


 

Airport Tracker/Info


-or-


 

Live Flight TrackerFlight Track Log ✈ N1149H ✈ 20-May-2013 ✈ KRYY - KMLB

Flight Track Log - Related Links

Times and Time Zones

All times are in EDT time to prevent confusion due to time zone crossing. See the N1149H flight status page for this flight to view local times or setup timezone preferences in your user account.

Time Position Orientation Groundspeed Altitude Reporting Facility
EDT Latitude Longitude Course Direction KTS MPH feet Rate Location/Type
12:13PM 34.0000 -84.6500 161° South 122 140 2,700  Level Atlanta TRACON
12:14PM 33.9833 -84.6333 140° Southeast 91 105 3,500 660 Climbing Atlanta TRACON
12:15PM 33.9667 -84.6167 140° Southeast 100 115 4,100 600 Climbing Atlanta TRACON
12:16PM 33.9500 -84.5833 121° Southeast 108 124 4,700 420 Climbing Atlanta TRACON
12:17PM 33.9167 -84.5667 157° South 122 140 5,000 120 Climbing Atlanta TRACON
12:18PM 33.7972 -84.4419 161° South  Level Estimated
12:18PM 33.9000 -84.5333 121° Southeast 154 177 5,000  Level Atlanta TRACON
12:19PM 33.8500 -84.5000 151° Southeast 156 180 5,000  Level Atlanta TRACON
12:20PM 33.8167 -84.5000 180° South 148 170 5,000  Level Atlanta TRACON
12:21PM 33.7667 -84.5000 180° South 147 169 5,000  Level Atlanta TRACON
12:22PM 33.7333 -84.5000 180° South 148 170 5,000  Level Atlanta TRACON
12:23PM 33.6833 -84.5000 180° South 148 170 5,000  Level Atlanta TRACON
12:24PM 33.6500 -84.4833 157° South 146 168 5,000  Level Atlanta TRACON
12:25PM 33.6167 -84.4833 180° South 146 168 5,000  Level Atlanta TRACON
12:26PM 33.5667 -84.4833 180° South 147 169 5,000  Level Atlanta TRACON
12:27PM 33.5333 -84.4833 180° South 145 167 5,000  Level Atlanta TRACON
12:28PM 33.4833 -84.4667 164° South 145 167 5,000  Level Atlanta TRACON
12:29PM 33.4500 -84.4500 157° South 152 175 5,000  Level Atlanta TRACON
12:30PM 33.4333 -84.4167 121° Southeast 152 175 5,000  Level Atlanta TRACON
12:31PM 33.4000 -84.3833 140° Southeast 153 176 5,000  Level Atlanta TRACON
12:32PM 33.3667 -84.3333 129° Southeast 154 177 5,000  Level Atlanta TRACON
12:33PM 33.3333 -84.3000 140° Southeast 151 174 5,100 240 Climbing Atlanta TRACON
12:34PM 33.3167 -84.2667 121° Southeast 133 153 5,500 420 Climbing Atlanta TRACON
12:35PM 33.2833 -84.2333 140° Southeast 119 137 6,000 420 Climbing Atlanta TRACON
12:36PM 33.2667 -84.2167 140° Southeast 113 130 6,400 360 Climbing Atlanta TRACON
12:37PM 33.2500 -84.1833 121° Southeast 105 121 6,800 300 Climbing Atlanta TRACON
12:38PM 33.2167 -84.1667 157° South 117 135 7,100 60 Climbing Atlanta TRACON
12:39PM 33.1833 -84.1500 157° South 139 160 7,000 -60 Descending Atlanta TRACON
12:40PM 33.1500 -84.1167 140° Southeast 154 177 7,000  Level Atlanta TRACON
12:41PM 33.1167 -84.0833 140° Southeast 158 182 7,000  Level Atlanta TRACON
12:42PM 33.0833 -84.0500 140° Southeast 158 182 7,000  Level Atlanta TRACON
12:43PM 33.0333 -84.0333 164° South 156 180 7,000  Level Atlanta TRACON
12:44PM 33.0000 -84.0000 140° Southeast 155 178 7,000  Level Atlanta TRACON
12:45PM 32.9667 -83.9667 140° Southeast 155 178 7,000  Level Atlanta TRACON
12:46PM 32.9333 -83.9333 140° Southeast 157 181 7,000  Level Atlanta TRACON
12:47PM 32.9000 -83.9000 140° Southeast 156 180 7,000  Level Atlanta TRACON
12:48PM 32.8667 -83.8667 140° Southeast 156 180 7,000  Level Atlanta TRACON
12:49PM 32.8333 -83.8333 140° Southeast 156 180 7,000  Level Atlanta TRACON
12:50PM 32.8167 -83.7833 112° Southeast 153 176 7,000  Level Atlanta TRACON
12:51PM 32.7833 -83.7500 140° Southeast 155 178 7,000  Level Atlanta TRACON
12:52PM 32.7667 -83.7167 121° Southeast 157 181 7,000  Level Atlanta TRACON
12:53PM 32.7167 -83.6833 151° Southeast 146 168 7,000  Level Atlanta TRACON
12:54PM 32.7000 -83.6667 140° Southeast 134 154 7,000  Level Atlanta TRACON
12:55PM 32.6500 -83.6167 140° Southeast 146 168 7,000  Level Atlanta TRACON
12:56PM 32.6167 -83.5833 140° Southeast 154 177 7,000  Level Atlanta TRACON
12:57PM 32.5833 -83.5667 157° South 158 182 7,100  Climbing Atlanta TRACON
12:58PM 32.5333 -83.5667 180° South 158 182 7,000 -60 Descending Atlanta TRACON
12:59PM 32.4833 -83.5667 180° South 157 181 7,000  Level Atlanta TRACON
01:01PM 32.4406 -83.5541 166° South  Level FlightAware Approximate
01:01PM 32.3736 -83.5394 166° South 166 191 7,000  Level Jacksonville Center
01:02PM 32.3297 -83.5317 171° South 161 185 7,000  Level Jacksonville Center
01:03PM 32.2861 -83.5217 169° South 161 185 7,000  Level Jacksonville Center
01:04PM 32.2422 -83.5142 172° South 161 185 7,000  Level Jacksonville Center
01:05PM 32.1983 -83.5039 169° South 161 185 7,100  Climbing Jacksonville Center
01:06PM 32.1672 -83.4669 135° Southeast 156 180 7,000 -60 Descending Jacksonville Center
01:07PM 32.1467 -83.4225 119° Southeast 156 180 7,000  Level Jacksonville Center
01:08PM 32.1197 -83.3831 129° Southeast 156 180 7,000  Level Jacksonville Center
01:09PM 32.0883 -83.3461 135° Southeast 156 180 7,000  Level Jacksonville Center
01:10PM 32.0572 -83.3044 131° Southeast 161 185 7,000  Level Jacksonville Center
01:11PM 32.0303 -83.2700 133° Southeast 161 185 7,000  Level Jacksonville Center
01:12PM 32.0011 -83.2331 133° Southeast 161 185 7,000  Level Jacksonville Center
01:13PM 31.9700 -83.1939 133° Southeast 161 185 7,000  Level Jacksonville Center
01:14PM 31.9428 -83.1544 129° Southeast 161 185 7,000  Level Jacksonville Center
01:15PM 31.9136 -83.1153 131° Southeast 161 185 7,000  Level Jacksonville Center
01:16PM 31.8844 -83.0736 129° Southeast 161 185 7,000  Level Jacksonville Center
01:17PM 31.8533 -83.0344 133° Southeast 161 185 7,000  Level Jacksonville Center
01:18PM 31.8283 -82.9928 125° Southeast 161 185 7,000  Level Jacksonville Center
01:19PM 31.8200 -82.9414 101° East 154 177 7,000  Level Jacksonville Center
01:20PM 31.8136 -82.8903 98° East 154 177 7,000  Level Jacksonville Center
01:21PM 31.7950 -82.8436 115° Southeast 154 177 7,000 240 Level Jacksonville Center
01:22PM 31.7719 -82.8069 126° Southeast 149 171 7,500 360 Climbing Jacksonville Center
01:23PM 31.7553 -82.7728 120° Southeast 137 158 7,800 300 Climbing Jacksonville Center
01:24PM 31.7281 -82.7386 133° Southeast 124 143 8,100 60 Climbing Jacksonville Center
01:25PM 31.7008 -82.7044 133° Southeast 135 155 8,000  Descending Jacksonville Center
01:26PM 31.6694 -82.6681 135° Southeast 146 168 8,100  Climbing Jacksonville Center
01:27PM 31.6358 -82.6314 137° Southeast 156 180 8,100  Level Jacksonville Center
01:28PM 31.6025 -82.5975 139° Southeast 161 185 8,100  Level Jacksonville Center
01:29PM 31.5711 -82.5586 133° Southeast 161 185 8,100 -60 Level Jacksonville Center
01:30PM 31.5417 -82.5219 133° Southeast 161 185 8,000 -60 Descending Jacksonville Center
01:31PM 31.5083 -82.4881 139° Southeast 161 185 8,000  Level Jacksonville Center
01:32PM 31.4706 -82.4589 147° Southeast 161 185 8,100  Climbing Jacksonville Center
01:33PM 31.4328 -82.4347 151° Southeast 156 180 8,000 -60 Descending Jacksonville Center
01:34PM 31.3972 -82.4083 148° Southeast 156 180 8,000  Level Jacksonville Center
01:35PM 31.3594 -82.3744 143° Southeast 161 185 8,000  Level Jacksonville Center
01:36PM 31.3261 -82.3478 146° Southeast 166 191 8,000  Level Jacksonville Center
01:37PM 31.2925 -82.3139 139° Southeast 166 191 8,000  Level Jacksonville Center
01:38PM 31.2569 -82.2825 143° Southeast 166 191 8,000  Level Jacksonville Center
01:39PM 31.2233 -82.2489 139° Southeast 166 191 8,000  Level Jacksonville Center
01:40PM 31.1875 -82.2175 143° Southeast 166 191 8,000  Level Jacksonville Center
01:41PM 31.1519 -82.1861 143° Southeast 166 191 8,000 -60 Level Jacksonville Center
01:42PM 31.1247 -82.1597 140° Southeast 162 186 7,900  Descending Jacksonville Center
01:42PM 31.1164 -82.1550 154° Southeast 166 191 8,000  Climbing Jacksonville Center
01:43PM 31.0931 -82.1333 142° Southeast 162 186 7,900  Descending Jacksonville Center
01:43PM 31.0806 -82.1236 146° Southeast 166 191 8,000 60 Climbing Jacksonville Center
01:44PM 31.0575 -82.0972 136° Southeast 162 186 8,000  Level Jacksonville Center
01:44PM 31.0450 -82.0900 154° Southeast 166 191 8,000 -120 Level Jacksonville Center
01:45PM 31.0217 -82.0683 141° Southeast 162 186 7,900  Descending Jacksonville Center
01:45PM 31.0092 -82.0611 154° Southeast 166 191 8,000  Climbing Jacksonville Center
01:46PM 30.9839 -82.0372 141° Southeast 163 188 7,900  Descending Jacksonville Center
01:46PM 30.9714 -82.0300 154° Southeast 166 191 8,000  Climbing Jacksonville Center
01:47PM 30.9419 -82.0086 148° Southeast 163 188 7,900  Descending Jacksonville Center
01:47PM 30.9317 -82.0036 157° South 171 197 8,000  Climbing Jacksonville Center
01:48PM 30.9022 -81.9822 148° Southeast 163 188 7,900  Descending Jacksonville Center
01:48PM 30.8939 -81.9775 154° Southeast 165 190 8,000  Climbing Jacksonville Center
01:49PM 30.8603 -81.9583 154° Southeast 161 185 7,900  Descending Jacksonville Center
01:49PM 30.8519 -81.9536 154° Southeast 160 184 8,000  Climbing Jacksonville Center
01:50PM 30.8203 -81.9369 156° South 162 186 7,900  Descending Jacksonville Center
01:50PM 30.8119 -81.9300 144° Southeast 160 184 8,000  Climbing Jacksonville Center
01:51PM 30.7847 -81.9133 152° Southeast 159 183 7,900  Descending Jacksonville Center
01:51PM 30.7722 -81.9061 154° Southeast 160 184 8,000  Climbing Jacksonville Center
01:52PM 30.7406 -81.8847 150° Southeast 159 183 7,900 -60 Descending Jacksonville Center
01:53PM 30.7028 -81.8608 151° Southeast 157 181 7,900  Level Jacksonville Center
01:54PM 30.6650 -81.8322 147° Southeast 158 182 7,900  Level Jacksonville Center
01:55PM 30.6272 -81.8039 147° Southeast 160 184 7,900  Level Jacksonville Center
01:56PM 30.5914 -81.7753 145° Southeast 157 181 7,900  Level Jacksonville Center
01:57PM 30.5558 -81.7419 141° Southeast 156 180 7,900  Level Jacksonville Center
01:58PM 30.5219 -81.7086 140° Southeast 159 183 7,900  Level Jacksonville Center
01:59PM 30.4861 -81.6753 141° Southeast 158 182 7,900  Level Jacksonville Center
02:00PM 30.4483 -81.6542 154° Southeast 144 166 7,900  Level Jacksonville Center
02:01PM 30.4106 -81.6378 159° South 151 174 7,900  Level Jacksonville Center
02:02PM 30.3667 -81.6214 162° South 156 180 7,900  Level Jacksonville Center
02:03PM 30.3247 -81.6075 164° South 157 181 7,900  Level Jacksonville Center
02:04PM 30.2808 -81.5914 162° South 158 182 7,900  Level Jacksonville Center
02:05PM 30.2389 -81.5775 164° South 159 183 7,900  Level Jacksonville Center
02:06PM 30.1947 -81.5586 160° South 161 185 7,900  Level Jacksonville Center
02:07PM 30.1528 -81.5425 162° South 157 181 7,900  Level Jacksonville Center
02:08PM 30.1108 -81.5264 162° South 158 182 7,900  Level Jacksonville Center
02:09PM 30.0689 -81.5078 159° South 161 185 7,900  Level Jacksonville Center
02:10PM 30.0250 -81.4892 160° South 154 177 7,900  Level Jacksonville Center
02:11PM 29.9850 -81.4706 158° South 155 178 7,900  Level Jacksonville Center
02:13PM 29.9389 -81.4450 154° Southeast 155 178 7,900  Level Jacksonville Center
02:14PM 29.9011 -81.4261 157° South 156 180 7,900  Level Jacksonville Center
02:15PM 29.8611 -81.4006 151° Southeast 155 178 7,900  Level Jacksonville Center
02:16PM 29.8275 -81.3747 146° Southeast 153 176 7,900  Level Jacksonville Center
02:17PM 29.7875 -81.3489 151° Southeast 153 176 7,900  Level Jacksonville Center
02:18PM 29.7475 -81.3258 153° Southeast 155 178 7,900  Level Jacksonville Center
02:19PM 29.7117 -81.2975 146° Southeast 157 181 7,900  Level Jacksonville Center
02:20PM 29.6739 -81.2742 152° Southeast 157 181 7,900  Level Jacksonville Center
02:21PM 29.6319 -81.2583 162° South 155 178 7,900  Level Jacksonville Center
02:22PM 29.5919 -81.2397 158° South 156 180 7,900  Level Jacksonville Center
02:23PM 29.5478 -81.2167 156° South 156 180 7,900  Level Jacksonville Center
02:24PM 29.5100 -81.2006 160° South 155 178 7,900  Level Jacksonville Center
02:25PM 29.4681 -81.1847 162° South 154 177 7,900  Level Jacksonville Center
02:26PM 29.4261 -81.1711 164° South 155 178 7,900  Level Jacksonville Center
02:27PM 29.3842 -81.1575 164° South 158 182 7,900  Level Jacksonville Center
02:28PM 29.3422 -81.1417 162° South 157 181 7,900  Level Jacksonville Center
02:29PM 29.3003 -81.1208 157° South 155 178 7,900  Level Jacksonville Center
02:30PM 29.2581 -81.1028 160° South 157 181 7,900  Level Jacksonville Center
02:31PM 29.2161 -81.0867 161° South 157 181 7,900  Level Jacksonville Center
02:33PM 29.1500 -81.0500 154° Southeast 156 180 7,900  Level Orlando TRACON
02:34PM 29.1000 -81.0333 164° South 157 181 7,900  Level Orlando TRACON
02:35PM 29.0500 -81.0167 164° South 156 180 7,900  Level Orlando TRACON
02:36PM 29.0167 -81.0000 156° South 154 177 7,900  Level Orlando TRACON
02:37PM 28.9833 -80.9833 156° South 155 178 7,900  Level Orlando TRACON
02:38PM 28.9333 -80.9667 164° South 158 182 7,900 -120 Level Orlando TRACON
02:39PM 28.9000 -80.9500 156° South 162 186 7,700 -360 Descending Orlando TRACON
02:40PM 28.8500 -80.9500 180° South 172 198 7,200 -600 Descending Orlando TRACON
02:41PM 28.8000 -80.9500 180° South 182 209 6,600 -600 Descending Orlando TRACON
02:42PM 28.7500 -80.9333 164° South 180 207 6,100 -600 Descending Orlando TRACON
02:43PM 28.7000 -80.9167 164° South 177 204 5,400 -720 Descending Orlando TRACON
02:44PM 28.6500 -80.9000 164° South 172 198 4,700 -600 Descending Orlando TRACON
02:45PM 28.6000 -80.9000 180° South 172 198 4,200 -420 Descending Orlando TRACON
02:46PM 28.5667 -80.8833 156° South 163 188 3,900 -120 Descending Orlando TRACON
02:47PM 28.5167 -80.8667 164° South 150 173 4,000  Climbing Orlando TRACON
02:48PM 28.4833 -80.8500 156° South 146 168 4,000  Level Orlando TRACON
02:49PM 28.4500 -80.8500 180° South 154 177 4,000  Level Orlando TRACON
02:50PM 28.4000 -80.8667 196° South 151 174 4,000  Level Orlando TRACON
02:51PM 28.3500 -80.8667 180° South 155 178 4,000  Level Orlando TRACON
02:52PM 28.3167 -80.8667 180° South 152 175 4,000  Level Orlando TRACON
02:53PM 28.2667 -80.8833 196° South 155 178 4,000  Level Orlando TRACON
02:54PM 28.2333 -80.8833 180° South 154 177 4,000  Level Orlando TRACON
02:55PM 28.1833 -80.9000 196° South 158 182 4,000  Level Orlando TRACON
02:56PM 28.1333 -80.9000 180° South 155 178 4,000 -60 Level Orlando TRACON
02:57PM 28.1000 -80.9000 180° South 163 188 3,900 -180 Descending Orlando TRACON
02:58PM 28.0500 -80.9167 196° South 143 165 3,700 -480 Descending Orlando TRACON
02:59PM 28.0833 -80.9333 336° Northwest 157 181 3,000 -960 Descending Orlando TRACON
03:00PM 28.1000 -80.9000 60° Northeast 147 169 1,700 -660 Descending Orlando TRACON
03:01PM 28.1000 -80.8500 90° East 127 146 1,600 -60 Descending Orlando TRACON
03:02PM 28.1000 -80.8167 90° East 121 139 1,600 -60 Level Orlando TRACON
03:03PM 28.1000 -80.7833 90° East 129 148 1,500 -300 Descending Orlando TRACON
03:04PM 28.1000 -80.7333 90° East 100 115 1,100 -420 Descending Orlando TRACON
03:05PM 28.1000 -80.7167 90° East 104 120 700 -360 Descending Orlando TRACON
03:06PM 28.1000 -80.6833 90° East 106 122 500 -240 Descending Orlando TRACON
03:08PM 28.1028 -80.6453 86° East  Level Estimated
03:15PM 28.1028 -80.6453 86° East  Level Estimated
03:16PM 28.1028 -80.6453 86° East  Level Estimated
03:17PM 28.1028 -80.6453 86° East  Level Estimated
03:18PM 28.1028 -80.6453 86° East  Level Estimated